Garden Valley, TX

11:35 AM CDT on April 28, 2015 (GMT -0500)
Tyler Pounds | | Change Station
CLOSE
Current Station
Airport
Location: Tyler,
Elevation: 541 ft
Nearby Weather Stations
Active Advisory: Flood Warning

Elev 541 ft 32.35 °N, 95.40 °W | Updated 29 minutes ago

Overcast
Overcast
56 °F
Feels Like 56 °F
N
8
Wind Variable Wind from North

Today
High -- | Low -- °F
--% Chance of Precip.
Yesterday
High -- | Low -- °F
Precip. -- in
6:38 AM 8:00 PM
Waxing Gibbous, 75% visible
Pressure 30.00 in
Visibility 10.0 miles
Clouds Few 1800 ft
Scattered Clouds 2300 ft
Overcast 4400 ft
Dew Point 49 °F
Humidity 77%
Rainfall 0.05 in
Snow Depth Not available.
UV 3 out of 12
Pollen 1.80 out of 12
Air Quality Not available.
Flu Activity Local Activity
SPECI KTYR 281606Z 01007KT 10SM FEW018 SCT023 OVC044 13/09 A3000 RMK AO2 T01330094

More Conditions Fewer Conditions

Pressure 30.00 in
Visibility 10.0 miles
Clouds Few 1800 ft
Scattered Clouds 2300 ft
Overcast 4400 ft
Dew Point 49 °F
Humidity 77%
Rainfall 0.05 in
Snow Depth Not available.
UV 3 out of 12
Pollen 1.80 out of 12
Air Quality Not available.
Flu Activity Local Activity
SPECI KTYR 281606Z 01007KT 10SM FEW018 SCT023 OVC044 13/09 A3000 RMK AO2 T01330094

More Conditions Fewer Conditions

10-Day Weather Forecast

Almanac

Astronomy

Apr. 28, 2015 Rise Set
Actual Time
Civil Twilight
Nautical Twilight
Astronomical Twilight
Moon
Length of Visible Light
Length of Day
Tomorrow will be .
, % of the Moon is Illuminated

Today's Extremes

State Highs State Lows

Community

WunderPhotos

Upload Photos

1,817,695 photos uploaded!

WunderBlogs® & News

Nearby

Air Quality

  Air Quality AQ Index Pollutant
Not available.

Snow Depth

Station Depth Elevation

Earthquake Activity

City Distance Mag. Time & Date
Minimum magnitude displayed is 2.5.

Coastal Water Temperatures

Place Temperature

Stations

Nearby Weather Stations

Station Location Temp. Windchill Dew Point Humidity Wind Precip. Elev Updated Type
                   
Flood Warning
Statement as of 8:53 AM CDT on April 28, 2015

... The Flood Warning extended until Saturday afternoon... the Flood
Warning continues for
the Sabine River near Mineola, Texas.
* Until Saturday afternoon... or until the warning is cancelled.
* At 815 am Tuesday the stage was 15.4 feet.
* Minor flooding is occurring and minor flooding is forecast.
* Flood stage is 14 feet.
* Forecast... the river will continue rising to near 15.7 feet by this
Tuesday evening. The river will fall below flood stage during
Friday late evening.
* Impact... at 16.0 feet... expect flooding of low river bottoms with
secondary roadways along with picnic and recreational areas
becoming inundated as well. Ranchers should move cattle and
equipment to higher ground.


Lat... Lon 3278 9574 3263 9535 3257 9535 3259 9550 3273 9574